Time;durP1;ratioP1;P1;durP2;ratioP2;P2;SDS_P1;SDS_P2;PMS_P1;PMS_P2;Temp;Humidity;BMP_temperature;BMP_pressure;BME280_temperature;BME280_humidity;BME280_pressure;Samples;Min_cycle;Max_cycle;Signal;HPM_P1;HPM_P2
2022/03/23 00:01:56;;;;;;;55.30;25.23;;;3.80;97.10;;;;;;4974422;28;20033;-76
2022/03/23 00:04:22;;;;;;;59.30;25.13;;;3.80;97.10;;;;;;4991999;28;20101;-76
2022/03/23 00:06:48;;;;;;;61.80;27.23;;;3.70;97.10;;;;;;4991998;28;20098;-76
2022/03/23 00:09:14;;;;;;;55.77;24.73;;;3.70;97.50;;;;;;4974004;28;20506;-76
2022/03/23 00:11:41;;;;;;;57.60;25.57;;;3.70;97.70;;;;;;4991731;28;20073;-76
2022/03/23 00:14:07;;;;;;;62.00;26.40;;;3.60;97.70;;;;;;4973935;28;20018;-76
2022/03/23 00:16:37;;;;;;;62.70;27.40;;;3.60;97.80;;;;;;4991410;28;20026;-76
2022/03/23 00:19:04;;;;;;;56.53;26.03;;;3.60;97.80;;;;;;4991678;28;20467;-76
2022/03/23 00:21:30;;;;;;;61.13;26.43;;;3.60;97.90;;;;;;4987971;28;20026;-76
2022/03/23 00:23:56;;;;;;;54.27;25.20;;;3.50;98.10;;;;;;4990329;28;20073;-76
2022/03/23 00:26:22;;;;;;;60.63;24.93;;;3.50;98.20;;;;;;4989365;28;20073;-76
2022/03/23 00:28:48;;;;;;;57.17;25.40;;;3.40;98.10;;;;;;4973766;28;20534;-76
2022/03/23 00:31:15;;;;;;;58.83;27.00;;;3.30;98.00;;;;;;4973425;28;20380;-76
2022/03/23 00:33:40;;;;;;;53.43;24.73;;;3.30;98.20;;;;;;4991745;28;20023;-75
2022/03/23 00:36:07;;;;;;;58.77;25.83;;;3.30;98.30;;;;;;4991239;28;20101;-76
2022/03/23 00:38:34;;;;;;;63.33;27.20;;;3.30;98.40;;;;;;5024440;23;20609;-79
2022/03/23 00:41:00;;;;;;;54.73;24.60;;;3.40;98.60;;;;;;5009389;28;20029;-79
2022/03/23 00:43:26;;;;;;;59.60;26.50;;;3.40;98.50;;;;;;5009425;28;20025;-79
2022/03/23 00:45:52;;;;;;;50.53;23.57;;;3.50;98.50;;;;;;5010636;28;20044;-79
2022/03/23 00:48:17;;;;;;;53.73;25.10;;;3.50;98.20;;;;;;5010453;28;20033;-78
2022/03/23 00:50:43;;;;;;;56.93;25.20;;;3.50;97.90;;;;;;5009777;28;20038;-78
2022/03/23 00:53:09;;;;;;;50.70;24.30;;;3.40;97.80;;;;;;5010645;28;20022;-79
2022/03/23 00:55:35;;;;;;;53.83;25.17;;;3.40;97.80;;;;;;4993065;28;20034;-79
2022/03/23 00:58:00;;;;;;;51.87;23.23;;;3.40;97.90;;;;;;5010011;28;20022;-79
2022/03/23 01:00:26;;;;;;;59.13;25.93;;;3.30;97.80;;;;;;5010581;28;20057;-79
2022/03/23 01:02:53;;;;;;;53.50;25.07;;;3.20;98.00;;;;;;5010177;28;20532;-79
2022/03/23 01:05:19;;;;;;;53.97;25.93;;;3.20;98.10;;;;;;5010540;28;20014;-79
2022/03/23 01:07:46;;;;;;;55.03;24.43;;;3.20;98.10;;;;;;5010378;28;20029;-79
2022/03/23 01:10:14;;;;;;;59.93;25.13;;;3.10;98.20;;;;;;5009538;28;20026;-79
2022/03/23 01:12:45;;;;;;;62.37;26.93;;;3.10;98.30;;;;;;5010494;28;20026;-79
2022/03/23 01:15:14;;;;;;;56.20;24.67;;;3.10;98.60;;;;;;5003398;28;20038;-79
2022/03/23 01:17:40;;;;;;;52.97;23.20;;;3.00;98.60;;;;;;5010326;28;20105;-79
2022/03/23 01:20:08;;;;;;;61.43;26.27;;;2.90;98.60;;;;;;5009877;28;20117;-79
2022/03/23 01:22:35;;;;;;;55.37;24.33;;;2.90;98.70;;;;;;5010722;28;20036;-79
2022/03/23 01:25:01;;;;;;;60.93;25.27;;;2.90;98.60;;;;;;5010062;28;20489;-79
2022/03/23 01:27:27;;;;;;;57.87;23.83;;;2.90;98.40;;;;;;5011138;28;20427;-78
2022/03/23 01:29:53;;;;;;;56.40;23.77;;;2.90;98.40;;;;;;4995807;28;20543;-79
2022/03/23 01:32:19;;;;;;;57.73;24.10;;;2.80;98.40;;;;;;5013752;28;20030;-79
2022/03/23 01:34:44;;;;;;;51.47;22.70;;;2.80;98.40;;;;;;4995288;28;20026;-79
2022/03/23 01:37:10;;;;;;;54.37;24.90;;;2.70;98.30;;;;;;5035791;22;20089;-77
2022/03/23 01:39:36;;;;;;;52.37;23.23;;;2.60;98.40;;;;;;5010006;28;20487;-76
2022/03/23 01:42:02;;;;;;;50.90;22.43;;;2.60;98.50;;;;;;5013333;28;20414;-75
2022/03/23 01:44:27;;;;;;;59.17;24.53;;;2.60;98.50;;;;;;5012379;28;20021;-75
2022/03/23 01:47:11;;;;;;;50.73;23.87;;;2.60;98.50;;;;;;5012993;28;20172;-75
2022/03/23 01:49:40;;;;;;;59.10;24.33;;;2.50;98.60;;;;;;4993172;28;20034;-76
2022/03/23 01:52:08;;;;;;;55.63;23.30;;;2.60;98.90;;;;;;4993332;28;20104;-76
2022/03/23 01:54:35;;;;;;;56.07;23.97;;;2.60;98.90;;;;;;4992855;28;20023;-76
2022/03/23 01:57:03;;;;;;;50.60;24.23;;;2.50;98.80;;;;;;4993135;28;20030;-75
2022/03/23 01:59:29;;;;;;;59.90;26.17;;;2.50;98.80;;;;;;4993189;28;20027;-75
2022/03/23 02:01:55;;;;;;;59.10;25.57;;;2.50;99.10;;;;;;4973650;28;20085;-75
2022/03/23 02:04:21;;;;;;;58.50;26.43;;;2.50;99.30;;;;;;4993712;28;20018;-76
2022/03/23 02:06:48;;;;;;;53.87;23.23;;;2.50;99.30;;;;;;4993255;28;20435;-75
2022/03/23 02:09:17;;;;;;;52.23;22.97;;;2.40;99.30;;;;;;4992211;28;20402;-75
2022/03/23 02:11:45;;;;;;;53.50;22.57;;;2.40;99.20;;;;;;4993410;28;20603;-75
2022/03/23 02:14:10;;;;;;;50.40;24.97;;;2.40;99.30;;;;;;4992772;28;20019;-75
2022/03/23 02:16:44;;;;;;;57.67;25.30;;;2.40;99.20;;;;;;4993256;28;20243;-76
2022/03/23 02:19:10;;;;;;;50.37;24.07;;;2.30;99.20;;;;;;4972619;28;20030;-76
2022/03/23 02:21:37;;;;;;;55.13;23.80;;;2.30;99.20;;;;;;4993322;28;20053;-76
2022/03/23 02:24:06;;;;;;;55.07;24.27;;;2.30;99.30;;;;;;4972136;28;20078;-76
2022/03/23 02:26:32;;;;;;;57.53;24.30;;;2.40;99.30;;;;;;4989985;28;20026;-76
2022/03/23 02:29:00;;;;;;;51.10;24.97;;;2.30;99.20;;;;;;4992664;28;20084;-75
2022/03/23 02:31:26;;;;;;;56.33;24.20;;;2.30;99.20;;;;;;4991789;28;20117;-76
2022/03/23 02:33:53;;;;;;;56.03;24.73;;;2.30;99.30;;;;;;4974668;28;20453;-76
2022/03/23 02:36:19;;;;;;;59.13;24.23;;;2.40;99.20;;;;;;4991617;28;20026;-76
2022/03/23 02:38:44;;;;;;;60.07;24.80;;;2.30;99.10;;;;;;5034701;23;20048;-78
2022/03/23 02:41:10;;;;;;;58.93;25.93;;;2.40;99.20;;;;;;5012132;28;20069;-78
2022/03/23 02:43:36;;;;;;;60.90;25.03;;;2.30;99.10;;;;;;5011285;28;20029;-78
2022/03/23 02:46:02;;;;;;;61.23;26.20;;;2.30;99.10;;;;;;5012526;28;20026;-78
2022/03/23 02:48:29;;;;;;;56.80;24.17;;;2.20;98.90;;;;;;5012153;28;20034;-79
2022/03/23 02:50:55;;;;;;;55.80;26.10;;;2.20;99.10;;;;;;4994763;28;20065;-78
2022/03/23 03:02:19;;;;;;;64.40;26.97;;;2.20;99.20;;;;;;5006633;28;20041;-78
2022/03/23 03:04:45;;;;;;;61.20;27.40;;;2.20;99.40;;;;;;5009230;28;20570;-78
2022/03/23 03:07:11;;;;;;;55.57;24.47;;;2.20;99.40;;;;;;5011955;28;20101;-78
2022/03/23 03:09:37;;;;;;;56.50;24.10;;;2.20;99.40;;;;;;5012254;28;20026;-78
2022/03/23 03:12:04;;;;;;;57.80;26.27;;;2.20;99.40;;;;;;5010993;28;20176;-79
2022/03/23 03:14:31;;;;;;;64.07;26.87;;;2.10;99.30;;;;;;5011297;28;20029;-78
2022/03/23 03:16:57;;;;;;;69.73;28.57;;;2.10;99.50;;;;;;5004290;28;20113;-78
2022/03/23 03:19:23;;;;;;;56.00;25.57;;;2.10;99.60;;;;;;5011794;28;20371;-78
2022/03/23 03:21:48;;;;;;;68.03;28.40;;;2.10;99.60;;;;;;5011360;28;20029;-78
2022/03/23 03:24:14;;;;;;;83.97;30.07;;;2.00;99.70;;;;;;5011964;28;20071;-79
2022/03/23 03:26:40;;;;;;;73.97;29.63;;;2.00;99.90;;;;;;5011410;28;20036;-78
2022/03/23 03:29:05;;;;;;;67.83;27.07;;;2.10;99.90;;;;;;5011040;28;20030;-78
2022/03/23 03:31:31;;;;;;;65.87;27.67;;;2.10;99.90;;;;;;5011686;28;20034;-78
2022/03/23 03:33:57;;;;;;;74.33;28.90;;;2.10;99.90;;;;;;5011755;28;20026;-78
2022/03/23 03:36:24;;;;;;;68.30;27.97;;;2.10;99.90;;;;;;5010921;28;20026;-79
2022/03/23 03:38:50;;;;;;;80.57;30.13;;;2.00;99.90;;;;;;4991717;23;20051;-75
2022/03/23 03:41:16;;;;;;;80.33;30.53;;;2.10;99.90;;;;;;4954676;28;20034;-75
2022/03/23 03:43:43;;;;;;;72.33;27.67;;;2.00;99.90;;;;;;4952531;28;20472;-76
2022/03/23 03:46:10;;;;;;;69.27;27.40;;;2.00;99.90;;;;;;4953214;28;20082;-76
2022/03/23 03:48:36;;;;;;;75.37;30.60;;;2.10;99.90;;;;;;4958106;28;20030;-75
2022/03/23 03:51:03;;;;;;;65.90;27.70;;;2.10;99.90;;;;;;4952236;28;20503;-75
2022/03/23 03:53:29;;;;;;;79.73;30.93;;;2.20;99.90;;;;;;4953418;28;20019;-76
2022/03/23 03:55:55;;;;;;;71.23;29.67;;;2.20;99.90;;;;;;4952925;29;20027;-75
2022/03/23 03:58:21;;;;;;;87.70;32.43;;;2.00;99.90;;;;;;4955916;28;20047;-75
2022/03/23 04:00:46;;;;;;;91.17;33.33;;;2.10;99.90;;;;;;4952738;29;20519;-75
2022/03/23 04:03:12;;;;;;;93.13;34.53;;;2.10;99.90;;;;;;4953021;28;20038;-75
2022/03/23 04:05:38;;;;;;;73.53;30.37;;;2.10;99.90;;;;;;4952454;28;20035;-75
2022/03/23 04:08:04;;;;;;;75.17;29.00;;;2.10;99.90;;;;;;4952963;28;20082;-75
2022/03/23 04:10:30;;;;;;;82.17;32.83;;;2.00;99.90;;;;;;4951812;28;20124;-75
2022/03/23 04:12:56;;;;;;;97.87;35.57;;;2.00;99.90;;;;;;4952432;28;20121;-75
2022/03/23 04:15:24;;;;;;;90.47;34.33;;;2.10;99.90;;;;;;4954074;28;20031;-75
2022/03/23 04:17:51;;;;;;;91.57;32.00;;;2.10;99.90;;;;;;4944753;28;20082;-75
2022/03/23 04:20:17;;;;;;;91.53;32.37;;;2.00;99.90;;;;;;4953316;28;20028;-75
2022/03/23 04:22:43;;;;;;;85.10;31.60;;;2.00;99.90;;;;;;4956084;28;20093;-75
2022/03/23 04:25:10;;;;;;;101.37;34.23;;;2.00;99.90;;;;;;4966563;28;20023;-75
2022/03/23 04:27:55;;;;;;;97.83;36.40;;;2.00;99.90;;;;;;4953272;28;20182;-75
2022/03/23 04:30:22;;;;;;;98.57;34.83;;;2.10;99.90;;;;;;4950254;29;20492;-75
2022/03/23 04:32:50;;;;;;;91.57;34.57;;;2.10;99.90;;;;;;4952011;29;20027;-75
2022/03/23 04:35:16;;;;;;;87.27;33.67;;;2.10;99.90;;;;;;4952650;28;20054;-75
2022/03/23 04:37:42;;;;;;;91.50;32.73;;;2.10;99.90;;;;;;4976505;23;22755;-78
2022/03/23 04:40:10;;;;;;;95.23;34.57;;;2.00;99.90;;;;;;4955256;28;20046;-78
2022/03/23 04:42:37;;;;;;;100.50;36.27;;;2.10;99.90;;;;;;4956371;28;20034;-78
2022/03/23 04:45:04;;;;;;;108.63;38.10;;;2.10;99.90;;;;;;4959527;28;20028;-78
2022/03/23 04:47:30;;;;;;;95.37;33.23;;;2.10;99.90;;;;;;4957756;28;20061;-78
2022/03/23 04:49:56;;;;;;;89.87;34.83;;;2.00;99.90;;;;;;4953098;28;20063;-78
2022/03/23 04:52:21;;;;;;;88.60;34.80;;;2.00;99.90;;;;;;4953266;28;20046;-78
2022/03/23 04:54:47;;;;;;;89.17;33.50;;;1.90;99.90;;;;;;4952901;28;20479;-78
2022/03/23 04:57:13;;;;;;;90.90;33.70;;;1.90;99.90;;;;;;4951837;28;20034;-79
2022/03/23 04:59:39;;;;;;;86.27;34.97;;;1.90;99.90;;;;;;4951763;28;20038;-78
2022/03/23 05:02:05;;;;;;;100.43;34.77;;;1.90;99.90;;;;;;4951873;28;20023;-78
2022/03/23 05:04:31;;;;;;;95.33;32.60;;;1.90;99.90;;;;;;4955101;28;20023;-78
2022/03/23 05:06:57;;;;;;;83.00;33.60;;;1.90;99.90;;;;;;4956702;28;20023;-78
2022/03/23 05:09:23;;;;;;;93.40;34.00;;;1.90;99.90;;;;;;4955307;28;20491;-78
2022/03/23 05:11:48;;;;;;;88.60;34.03;;;1.90;99.90;;;;;;4955125;28;20047;-78
2022/03/23 05:14:15;;;;;;;84.30;33.93;;;1.90;99.90;;;;;;4955332;28;20020;-78
2022/03/23 05:16:42;;;;;;;96.87;35.17;;;1.90;99.90;;;;;;4956384;28;20033;-78
2022/03/23 05:19:07;;;;;;;99.67;35.73;;;1.90;99.90;;;;;;4954996;28;20082;-78
2022/03/23 05:21:33;;;;;;;105.73;35.13;;;1.90;99.90;;;;;;4956193;28;20031;-78
2022/03/23 05:23:59;;;;;;;98.23;35.30;;;2.00;99.90;;;;;;4953833;28;20027;-78
2022/03/23 05:26:25;;;;;;;102.53;38.20;;;2.00;99.90;;;;;;4956308;28;20062;-77
2022/03/23 05:28:50;;;;;;;111.27;39.17;;;1.90;99.90;;;;;;4956345;28;20038;-78
2022/03/23 05:31:16;;;;;;;119.07;39.70;;;1.90;99.90;;;;;;4955147;28;20474;-77
2022/03/23 05:33:42;;;;;;;128.90;42.47;;;1.90;99.90;;;;;;4956180;28;20028;-77
2022/03/23 05:36:08;;;;;;;104.83;39.40;;;2.00;99.90;;;;;;4955639;28;20027;-77
2022/03/23 05:38:34;;;;;;;91.53;33.23;;;2.00;99.90;;;;;;4992099;23;20109;-75
2022/03/23 05:41:00;;;;;;;96.47;34.87;;;2.00;99.90;;;;;;4994731;28;20034;-75
2022/03/23 05:43:25;;;;;;;104.27;37.73;;;1.90;99.90;;;;;;4976558;28;20023;-75
2022/03/23 05:45:51;;;;;;;97.07;36.20;;;1.80;99.90;;;;;;4994309;28;20026;-75
2022/03/23 05:48:17;;;;;;;93.00;33.17;;;1.80;99.90;;;;;;4993804;28;20553;-75
2022/03/23 05:50:43;;;;;;;87.87;34.10;;;1.80;99.90;;;;;;4976770;28;20038;-75
2022/03/23 05:53:09;;;;;;;91.47;34.20;;;1.80;99.90;;;;;;4993872;28;20022;-75
2022/03/23 05:55:35;;;;;;;93.37;34.90;;;1.70;99.90;;;;;;4994701;28;20148;-75
2022/03/23 05:58:00;;;;;;;97.33;37.60;;;1.70;99.90;;;;;;4976913;28;20050;-75
2022/03/23 06:00:26;;;;;;;114.53;37.87;;;1.80;99.90;;;;;;4976327;28;20388;-75
2022/03/23 06:02:52;;;;;;;106.60;38.70;;;1.80;99.90;;;;;;4994500;28;20410;-75
2022/03/23 06:05:17;;;;;;;119.13;37.83;;;1.90;99.90;;;;;;4993366;28;20034;-75
2022/03/23 06:07:43;;;;;;;98.80;36.27;;;1.90;99.90;;;;;;4983364;28;20061;-75
2022/03/23 06:10:09;;;;;;;114.40;37.30;;;1.90;99.90;;;;;;4976826;28;20022;-75
2022/03/23 06:12:35;;;;;;;113.00;39.87;;;2.00;99.90;;;;;;4993860;28;20041;-74
2022/03/23 06:15:01;;;;;;;95.30;34.83;;;2.10;99.90;;;;;;4999993;28;20026;-74
2022/03/23 06:17:27;;;;;;;88.97;33.40;;;2.10;99.90;;;;;;4976466;28;20045;-74
2022/03/23 06:19:53;;;;;;;100.43;37.23;;;2.10;99.90;;;;;;4992507;28;20029;-74
2022/03/23 06:22:19;;;;;;;83.70;34.13;;;2.10;99.90;;;;;;4986639;28;20046;-75
2022/03/23 06:24:45;;;;;;;99.97;37.73;;;2.10;99.90;;;;;;4992762;28;20025;-74
2022/03/23 06:27:11;;;;;;;109.27;38.80;;;2.10;99.90;;;;;;4993711;28;20112;-75
2022/03/23 06:29:37;;;;;;;100.70;38.00;;;2.20;99.90;;;;;;4999458;28;20081;-74
2022/03/23 06:32:04;;;;;;;98.13;36.40;;;2.30;99.90;;;;;;4993466;28;20461;-75
2022/03/23 06:34:29;;;;;;;87.53;35.77;;;2.30;99.90;;;;;;4992724;28;20471;-75
2022/03/23 06:36:55;;;;;;;98.93;35.73;;;2.40;99.90;;;;;;4975817;28;20448;-75
2022/03/23 06:39:21;;;;;;;98.63;36.67;;;2.50;99.90;;;;;;5025851;23;20045;-77
2022/03/23 06:41:47;;;;;;;98.23;35.00;;;2.50;99.90;;;;;;5012406;28;20413;-77
2022/03/23 06:44:13;;;;;;;100.00;36.07;;;2.70;99.90;;;;;;5011688;28;20446;-77
2022/03/23 06:46:39;;;;;;;107.77;37.57;;;2.70;99.90;;;;;;5012395;28;20056;-77
2022/03/23 06:49:05;;;;;;;106.43;37.97;;;2.80;99.90;;;;;;5011951;28;20058;-77
2022/03/23 06:51:32;;;;;;;108.27;38.77;;;2.80;99.90;;;;;;4993414;28;20418;-77
2022/03/23 06:53:57;;;;;;;116.67;39.13;;;2.90;99.90;;;;;;5012182;28;20068;-77
2022/03/23 06:56:23;;;;;;;109.80;37.73;;;3.10;99.90;;;;;;5012410;28;20030;-77
2022/03/23 06:58:49;;;;;;;106.87;37.90;;;3.20;99.90;;;;;;4993436;28;20134;-77
2022/03/23 07:01:15;;;;;;;94.07;36.17;;;3.30;99.90;;;;;;5011093;28;20017;-78
2022/03/23 07:03:40;;;;;;;88.53;37.07;;;3.40;99.90;;;;;;5009962;28;20434;-78
2022/03/23 07:06:06;;;;;;;90.30;36.80;;;3.50;99.90;;;;;;5012234;28;20433;-78
2022/03/23 07:11:16;;;;;;;89.27;36.17;;;3.70;99.90;;;;;;5011504;28;20048;-78
2022/03/23 07:13:41;;;;;;;88.83;34.43;;;3.80;99.90;;;;;;5011707;28;20462;-78
2022/03/23 07:16:07;;;;;;;83.10;34.23;;;3.90;99.90;;;;;;5010903;28;20022;-78
2022/03/23 07:18:33;;;;;;;92.03;37.93;;;3.90;99.90;;;;;;5011421;28;20462;-78
2022/03/23 07:20:59;;;;;;;96.83;36.57;;;4.00;99.90;;;;;;5009960;28;20029;-78
2022/03/23 07:23:24;;;;;;;84.50;32.70;;;4.10;99.90;;;;;;5011272;28;20029;-78
2022/03/23 07:25:50;;;;;;;92.13;37.40;;;4.20;99.90;;;;;;4992121;28;20459;-79
2022/03/23 07:28:16;;;;;;;83.33;34.90;;;4.30;99.90;;;;;;5011134;28;20037;-79
2022/03/23 07:30:41;;;;;;;85.43;36.50;;;4.40;99.90;;;;;;5010889;28;20038;-80
2022/03/23 07:33:08;;;;;;;83.67;35.77;;;4.50;99.90;;;;;;5011568;28;20463;-80
2022/03/23 07:35:33;;;;;;;94.50;37.27;;;4.70;99.90;;;;;;5010783;28;20028;-80
2022/03/23 07:37:59;;;;;;;94.30;35.87;;;4.90;99.90;;;;;;5033611;22;20044;-74
2022/03/23 07:40:25;;;;;;;88.87;37.10;;;5.00;99.90;;;;;;5010496;28;20105;-74
2022/03/23 07:42:50;;;;;;;80.17;35.20;;;5.20;99.90;;;;;;5010818;28;20036;-74
2022/03/23 07:45:16;;;;;;;82.53;36.27;;;5.40;99.90;;;;;;5010960;28;20022;-73
2022/03/23 07:47:42;;;;;;;93.87;37.07;;;5.50;99.90;;;;;;5009519;28;20034;-74
2022/03/23 07:50:08;;;;;;;81.60;35.87;;;5.70;99.90;;;;;;5010696;28;20037;-74
2022/03/23 07:52:34;;;;;;;84.43;36.67;;;5.90;99.90;;;;;;5011012;28;20134;-74
2022/03/23 07:55:00;;;;;;;80.60;35.90;;;6.10;99.90;;;;;;4991383;28;20482;-74
2022/03/23 07:57:26;;;;;;;82.00;36.40;;;6.30;99.90;;;;;;4993167;28;20053;-74
2022/03/23 07:59:55;;;;;;;80.28;36.17;;;6.50;99.90;;;;;;5009974;28;20018;-74
2022/03/23 08:02:24;;;;;;;86.03;35.30;;;6.70;99.90;;;;;;5004415;28;20053;-74
2022/03/23 08:04:50;;;;;;;78.28;34.10;;;6.90;99.90;;;;;;5009577;28;20074;-74
2022/03/23 08:07:16;;;;;;;72.97;35.22;;;7.10;99.90;;;;;;5010098;28;20099;-74
2022/03/23 08:09:42;;;;;;;74.57;34.88;;;7.30;99.90;;;;;;4992280;28;20073;-74
2022/03/23 08:12:08;;;;;;;76.63;34.50;;;7.50;99.90;;;;;;5007871;28;20103;-74
2022/03/23 08:14:33;;;;;;;76.75;33.63;;;7.70;99.90;;;;;;5010003;28;20034;-74
2022/03/23 08:16:59;;;;;;;79.00;37.20;;;7.90;99.90;;;;;;5010201;28;20045;-74
2022/03/23 08:19:25;;;;;;;81.05;36.10;;;8.10;99.90;;;;;;5008896;28;20536;-74
2022/03/23 08:21:52;;;;;;;75.00;31.35;;;8.30;99.90;;;;;;4992523;28;20029;-74
2022/03/23 08:24:18;;;;;;;73.03;32.20;;;8.60;99.90;;;;;;5010663;28;20017;-75
2022/03/23 08:26:44;;;;;;;83.47;35.58;;;8.90;99.50;;;;;;4992844;28;20217;-74
2022/03/23 08:29:09;;;;;;;76.13;33.80;;;9.10;97.20;;;;;;5010287;28;20597;-75
2022/03/23 08:31:36;;;;;;;65.72;30.98;;;9.40;94.40;;;;;;5009594;28;20038;-74
2022/03/23 08:34:04;;;;;;;70.15;31.88;;;9.70;92.40;;;;;;4992641;28;20014;-74
2022/03/23 08:36:30;;;;;;;66.70;31.48;;;10.00;90.70;;;;;;5010818;28;20029;-74
2022/03/23 08:38:56;;;;;;;60.45;28.83;;;10.20;89.60;;;;;;5025095;22;20048;-80
2022/03/23 08:41:22;;;;;;;67.93;31.38;;;10.60;90.60;;;;;;5013876;28;20026;-80
2022/03/23 08:43:48;;;;;;;60.78;27.42;;;11.00;87.50;;;;;;5012897;28;20030;-80
2022/03/23 08:46:13;;;;;;;55.85;29.23;;;11.60;83.60;;;;;;5012458;28;20073;-80
2022/03/23 08:48:40;;;;;;;61.60;29.35;;;12.30;80.80;;;;;;5014105;28;20038;-80
2022/03/23 08:51:06;;;;;;;52.30;28.55;;;13.10;75.50;;;;;;5013866;28;20037;-81
2022/03/23 08:53:31;;;;;;;56.50;28.50;;;13.70;71.70;;;;;;5014447;28;20363;-79
2022/03/23 08:55:57;;;;;;;60.50;28.90;;;13.90;71.10;;;;;;5013712;28;20021;-80
2022/03/23 08:58:23;;;;;;;60.70;28.10;;;14.10;70.70;;;;;;5013814;28;20029;-80
2022/03/23 09:00:49;;;;;;;55.67;28.40;;;14.50;68.10;;;;;;5011855;28;20693;-80
2022/03/23 09:03:15;;;;;;;52.17;27.70;;;14.90;66.30;;;;;;4996835;28;20120;-80
2022/03/23 09:05:41;;;;;;;45.33;25.92;;;15.30;63.20;;;;;;5014389;28;20419;-80
2022/03/23 09:08:10;;;;;;;50.28;27.75;;;15.80;63.00;;;;;;5013000;28;20034;-80
2022/03/23 09:10:36;;;;;;;53.03;28.58;;;16.50;64.10;;;;;;5014321;28;20113;-80
2022/03/23 09:13:03;;;;;;;50.95;28.80;;;17.20;57.60;;;;;;4996159;28;20052;-80
2022/03/23 09:15:30;;;;;;;47.75;26.25;;;17.30;56.40;;;;;;5013183;28;20018;-80
2022/03/23 09:18:03;;;;;;;50.22;29.33;;;17.90;58.30;;;;;;5012702;28;20033;-80
2022/03/23 09:20:29;;;;;;;48.17;27.88;;;18.20;56.10;;;;;;5011149;28;20383;-79
2022/03/23 09:22:56;;;;;;;50.63;28.42;;;18.50;53.50;;;;;;5011575;28;20109;-79
2022/03/23 09:25:22;;;;;;;51.72;27.67;;;18.40;51.40;;;;;;5012259;28;20025;-79
2022/03/23 09:27:49;;;;;;;47.70;28.25;;;19.30;49.60;;;;;;5012885;28;20033;-80
2022/03/23 09:30:15;;;;;;;47.38;27.85;;;19.90;49.90;;;;;;5013939;28;20015;-80
2022/03/23 09:32:42;;;;;;;46.05;27.38;;;20.00;47.20;;;;;;5013169;28;20026;-80
2022/03/23 09:35:09;;;;;;;47.22;28.60;;;20.70;46.90;;;;;;5013890;28;20022;-81
2022/03/23 09:40:06;;;;;;;41.22;26.00;;;21.30;45.70;;;;;;4974034;28;20054;-77
2022/03/23 09:42:32;;;;;;;47.03;27.70;;;22.20;44.30;;;;;;4958481;28;20037;-77
2022/03/23 09:44:58;;;;;;;42.50;26.27;;;23.10;42.40;;;;;;4967838;28;20018;-78
2022/03/23 09:47:24;;;;;;;40.88;25.90;;;24.00;39.70;;;;;;4957663;28;20500;-78
2022/03/23 09:49:50;;;;;;;38.55;25.05;;;24.90;36.90;;;;;;4978014;28;20023;-78
2022/03/23 09:52:16;;;;;;;40.83;25.20;;;26.10;36.50;;;;;;4974809;28;20487;-78
2022/03/23 09:54:45;;;;;;;37.90;26.20;;;26.60;35.30;;;;;;4974465;28;20542;-79
2022/03/23 09:57:13;;;;;;;34.72;24.23;;;28.10;33.60;;;;;;4973623;28;20099;-79
2022/03/23 09:59:40;;;;;;;37.15;25.90;;;29.30;31.20;;;;;;4974764;28;20057;-79
2022/03/23 10:02:06;;;;;;;39.15;25.55;;;28.90;30.40;;;;;;4974104;28;20028;-79
2022/03/23 10:05:08;;;;;;;30.95;22.70;;;29.50;28.50;;;;;;4974452;28;20030;-78
2022/03/23 10:07:46;;;;;;;36.90;24.98;;;30.60;29.10;;;;;;4959616;28;20038;-79
2022/03/23 10:10:50;;;;;;;32.17;23.73;;;30.80;27.00;;;;;;4957077;28;20015;-79
2022/03/23 10:13:47;;;;;;;42.20;24.38;;;31.30;25.80;;;;;;4951090;28;20034;-79
2022/03/23 10:17:02;;;;;;;33.60;24.08;;;32.00;25.80;;;;;;4971872;28;20033;-76
2022/03/23 10:19:28;;;;;;;34.80;22.40;;;31.90;25.00;;;;;;4943335;28;20368;-77
2022/03/23 10:21:54;;;;;;;30.67;22.00;;;32.00;25.90;;;;;;4961074;28;20038;-77
2022/03/23 10:24:19;;;;;;;30.02;21.42;;;31.50;25.20;;;;;;4956690;28;20088;-77
2022/03/23 10:26:49;;;;;;;26.33;17.33;;;32.00;24.70;;;;;;4956220;28;20050;-77
2022/03/23 10:29:24;;;;;;;31.10;21.65;;;32.60;26.70;;;;;;4973999;28;20026;-77
2022/03/23 10:32:21;;;;;;;32.85;21.75;;;33.20;23.20;;;;;;4976897;28;20089;-76
2022/03/23 10:34:54;;;;;;;29.27;19.60;;;32.30;24.70;;;;;;4961737;28;20110;-79
2022/03/23 10:40:12;;;;;;;28.13;19.20;;;32.80;24.60;;;;;;4989813;28;20053;-80
2022/03/23 10:42:41;;;;;;;30.02;20.58;;;30.80;24.00;;;;;;4989585;28;20034;-82
2022/03/23 10:45:12;;;;;;;29.23;20.63;;;32.50;23.90;;;;;;4992899;28;20014;-80
2022/03/23 10:47:40;;;;;;;30.20;21.25;;;33.60;24.40;;;;;;4974279;28;20036;-80
2022/03/23 10:50:12;;;;;;;29.00;20.77;;;32.90;23.40;;;;;;4992246;28;20517;-80
2022/03/23 10:52:54;;;;;;;26.42;18.65;;;33.80;22.70;;;;;;4992408;28;20105;-81
2022/03/23 10:55:21;;;;;;;26.85;19.85;;;35.10;22.50;;;;;;4988161;28;20069;-81
2022/03/23 10:58:12;;;;;;;25.95;18.25;;;34.00;22.10;;;;;;4992425;28;20030;-80
2022/03/23 11:00:39;;;;;;;27.48;19.73;;;34.10;22.90;;;;;;4975146;28;20050;-81
2022/03/23 11:03:09;;;;;;;27.75;20.13;;;35.10;21.60;;;;;;4992535;28;20026;-81
2022/03/23 11:05:45;;;;;;;24.70;19.20;;;33.90;21.80;;;;;;4973629;28;20410;-81
2022/03/23 11:08:22;;;;;;;29.35;18.50;;;33.40;22.90;;;;;;4991670;28;20038;-80
2022/03/23 11:16:27;;;;;;;24.20;18.38;;;33.80;21.60;;;;;;4991751;28;20053;-80
2022/03/23 11:19:11;;;;;;;23.70;18.35;;;34.10;21.00;;;;;;4991107;28;20026;-80
2022/03/23 11:21:59;;;;;;;31.02;18.40;;;34.20;22.70;;;;;;4991485;28;20035;-80
2022/03/23 11:24:31;;;;;;;27.60;19.02;;;33.30;21.20;;;;;;4991463;28;20050;-80
2022/03/23 11:26:57;;;;;;;32.55;20.65;;;33.30;23.00;;;;;;4990977;28;20019;-80
2022/03/23 11:29:24;;;;;;;30.90;20.98;;;32.90;22.80;;;;;;4991811;28;20472;-79
2022/03/23 11:31:52;;;;;;;33.13;21.65;;;31.60;23.50;;;;;;4990629;28;20105;-80
2022/03/23 11:34:21;;;;;;;31.70;21.25;;;30.60;25.10;;;;;;4991716;28;20110;-80
2022/03/23 11:36:50;;;;;;;32.10;20.73;;;30.40;26.40;;;;;;4984288;28;20030;-80
2022/03/23 11:39:16;;;;;;;32.97;20.45;;;30.70;25.80;;;;;;5025637;22;20030;-77
2022/03/23 11:41:43;;;;;;;34.05;20.02;;;32.70;24.40;;;;;;5009606;28;20037;-77
2022/03/23 11:44:16;;;;;;;31.92;21.25;;;33.80;24.40;;;;;;5011655;28;20037;-77
2022/03/23 11:46:42;;;;;;;30.13;21.95;;;34.80;22.00;;;;;;5011420;28;20386;-78
2022/03/23 11:49:26;;;;;;;35.22;22.77;;;35.30;21.80;;;;;;5010236;28;20026;-78
2022/03/23 11:52:03;;;;;;;36.90;22.85;;;33.90;21.50;;;;;;4993774;28;20406;-78
2022/03/23 11:57:54;;;;;;;33.05;22.17;;;31.50;23.60;;;;;;5011561;28;20064;-77
2022/03/23 12:00:20;;;;;;;32.13;21.55;;;31.50;23.30;;;;;;5010356;28;20025;-78
2022/03/23 12:02:46;;;;;;;34.53;21.15;;;31.80;24.10;;;;;;5011627;28;20049;-78
2022/03/23 12:05:32;;;;;;;46.05;22.02;;;32.30;23.30;;;;;;5011346;28;20022;-77
2022/03/23 12:07:58;;;;;;;32.63;21.88;;;31.70;23.00;;;;;;4988880;28;20490;-77
2022/03/23 12:10:28;;;;;;;35.28;22.40;;;31.60;23.70;;;;;;5011590;28;20068;-77
2022/03/23 12:12:54;;;;;;;33.85;20.95;;;32.20;23.10;;;;;;4993465;28;20072;-77
2022/03/23 12:15:23;;;;;;;37.55;21.23;;;32.20;22.40;;;;;;4993063;28;20032;-78
2022/03/23 12:17:55;;;;;;;35.70;22.55;;;32.60;23.30;;;;;;5011233;28;20060;-77
2022/03/23 12:20:37;;;;;;;31.00;20.77;;;31.40;22.90;;;;;;5011155;28;20029;-79
2022/03/23 12:23:42;;;;;;;32.50;20.85;;;32.40;24.90;;;;;;5010305;28;20049;-79
2022/03/23 12:26:14;;;;;;;34.28;22.85;;;32.50;23.80;;;;;;5006885;28;20198;-77
2022/03/23 12:28:54;;;;;;;32.47;21.92;;;32.30;22.60;;;;;;5011050;28;20018;-77
2022/03/23 12:31:21;;;;;;;30.37;19.67;;;31.30;22.90;;;;;;4993595;28;20026;-79
2022/03/23 12:34:02;;;;;;;34.63;22.20;;;31.50;24.00;;;;;;4993326;28;20034;-79
2022/03/23 12:39:23;;;;;;;39.78;22.83;;;32.40;23.50;;;;;;5031120;23;20129;-81
2022/03/23 12:41:49;;;;;;;32.58;20.60;;;33.10;22.40;;;;;;5011068;28;20041;-83
2022/03/23 12:44:14;;;;;;;35.40;22.05;;;34.40;22.90;;;;;;5010545;28;20018;-83
2022/03/23 12:46:45;;;;;;;34.25;21.35;;;35.00;23.00;;;;;;5009438;28;20025;-80
2022/03/23 13:00:26;;;;;;;28.08;19.17;;;33.90;21.70;;;;;;5010259;28;20044;-83
2022/03/23 13:03:04;;;;;;;31.67;19.92;;;34.20;21.50;;;;;;5010675;28;20022;-83
2022/03/23 13:05:35;;;;;;;30.77;17.15;;;32.80;20.90;;;;;;5010759;28;20062;-81
2022/03/23 13:08:01;;;;;;;27.50;17.10;;;34.30;21.40;;;;;;4992767;28;20048;-83
2022/03/23 13:10:27;;;;;;;26.95;16.83;;;34.70;20.20;;;;;;4992401;28;20501;-81
2022/03/23 13:13:07;;;;;;;24.13;16.85;;;34.70;19.70;;;;;;5009496;28;20600;-80
2022/03/23 13:15:34;;;;;;;29.00;17.00;;;33.40;19.80;;;;;;5009263;28;20022;-83
2022/03/23 13:18:00;;;;;;;22.80;14.55;;;32.80;19.70;;;;;;5009123;28;20026;-83